sensor_id;sensor_type;location;lat;lon;timestamp;pressure;altitude;pressure_sealevel;temperature;humidity
6144;BME280;3103;49.492;8.474;2023-03-12T00:02:00;100231.09;;;3.77;59.09
6144;BME280;3103;49.492;8.474;2023-03-12T00:04:27;100224.50;;;3.60;59.42
6144;BME280;3103;49.492;8.474;2023-03-12T00:06:54;100222.06;;;3.65;59.92
6144;BME280;3103;49.492;8.474;2023-03-12T00:09:21;100222.66;;;3.61;59.75
6144;BME280;3103;49.492;8.474;2023-03-12T00:11:49;100235.28;;;3.45;59.52
6144;BME280;3103;49.492;8.474;2023-03-12T00:14:16;100223.69;;;3.60;59.41
6144;BME280;3103;49.492;8.474;2023-03-12T00:16:43;100224.53;;;3.67;59.01
6144;BME280;3103;49.492;8.474;2023-03-12T00:19:11;100227.16;;;3.53;59.34
6144;BME280;3103;49.492;8.474;2023-03-12T00:21:38;100230.34;;;3.42;60.03
6144;BME280;3103;49.492;8.474;2023-03-12T00:24:06;100228.22;;;3.72;59.66
6144;BME280;3103;49.492;8.474;2023-03-12T00:26:33;100232.88;;;3.57;60.14
6144;BME280;3103;49.492;8.474;2023-03-12T00:29:00;100230.56;;;3.47;60.96
6144;BME280;3103;49.492;8.474;2023-03-12T00:31:28;100233.63;;;3.44;61.72
6144;BME280;3103;49.492;8.474;2023-03-12T00:33:59;100239.81;;;3.17;62.49
6144;BME280;3103;49.492;8.474;2023-03-12T00:36:28;100233.09;;;3.21;62.42
6144;BME280;3103;49.492;8.474;2023-03-12T00:38:57;100233.00;;;3.42;62.14
6144;BME280;3103;49.492;8.474;2023-03-12T00:41:24;100237.72;;;3.47;61.46
6144;BME280;3103;49.492;8.474;2023-03-12T00:43:52;100240.31;;;3.34;62.00
6144;BME280;3103;49.492;8.474;2023-03-12T00:46:19;100238.31;;;3.42;62.08
6144;BME280;3103;49.492;8.474;2023-03-12T00:48:46;100242.97;;;3.34;62.20
6144;BME280;3103;49.492;8.474;2023-03-12T00:51:13;100235.31;;;3.11;61.55
6144;BME280;3103;49.492;8.474;2023-03-12T00:53:40;100231.69;;;2.90;62.74
6144;BME280;3103;49.492;8.474;2023-03-12T00:56:07;100232.41;;;3.40;62.25
6144;BME280;3103;49.492;8.474;2023-03-12T00:58:33;100229.63;;;3.20;62.54
6144;BME280;3103;49.492;8.474;2023-03-12T01:01:00;100227.63;;;3.29;62.70
6144;BME280;3103;49.492;8.474;2023-03-12T01:03:27;100236.16;;;3.18;62.88
6144;BME280;3103;49.492;8.474;2023-03-12T01:05:54;100234.44;;;3.38;61.64
6144;BME280;3103;49.492;8.474;2023-03-12T01:08:21;100232.22;;;3.48;60.79
6144;BME280;3103;49.492;8.474;2023-03-12T01:10:49;100232.53;;;3.25;62.35
6144;BME280;3103;49.492;8.474;2023-03-12T01:13:16;100230.75;;;3.39;60.83
6144;BME280;3103;49.492;8.474;2023-03-12T01:15:42;100234.44;;;3.45;60.94
6144;BME280;3103;49.492;8.474;2023-03-12T01:18:10;100235.78;;;3.69;60.29
6144;BME280;3103;49.492;8.474;2023-03-12T01:20:37;100236.56;;;3.15;61.07
6144;BME280;3103;49.492;8.474;2023-03-12T01:23:04;100231.13;;;3.36;60.96
6144;BME280;3103;49.492;8.474;2023-03-12T01:25:31;100230.41;;;3.55;60.01
6144;BME280;3103;49.492;8.474;2023-03-12T01:27:59;100216.28;;;3.48;60.02
6144;BME280;3103;49.492;8.474;2023-03-12T01:30:27;100223.63;;;3.46;59.68
6144;BME280;3103;49.492;8.474;2023-03-12T01:32:54;100224.84;;;3.50;59.88
6144;BME280;3103;49.492;8.474;2023-03-12T01:35:20;100230.72;;;3.33;59.20
6144;BME280;3103;49.492;8.474;2023-03-12T01:37:47;100233.22;;;3.41;59.58
6144;BME280;3103;49.492;8.474;2023-03-12T01:40:19;100232.00;;;3.43;57.80
6144;BME280;3103;49.492;8.474;2023-03-12T01:42:54;100236.97;;;3.18;59.62
6144;BME280;3103;49.492;8.474;2023-03-12T01:45:58;100236.78;;;3.20;59.28
6144;BME280;3103;49.492;8.474;2023-03-12T01:48:29;100228.47;;;3.30;59.39
6144;BME280;3103;49.492;8.474;2023-03-12T01:50:58;100228.00;;;3.19;58.60
6144;BME280;3103;49.492;8.474;2023-03-12T01:53:25;100222.47;;;3.21;58.25
6144;BME280;3103;49.492;8.474;2023-03-12T01:55:53;100210.50;;;3.32;58.99
6144;BME280;3103;49.492;8.474;2023-03-12T01:58:20;100212.19;;;3.46;59.10
6144;BME280;3103;49.492;8.474;2023-03-12T02:00:47;100195.63;;;3.44;57.87
6144;BME280;3103;49.492;8.474;2023-03-12T02:03:15;100202.56;;;3.38;59.10
6144;BME280;3103;49.492;8.474;2023-03-12T02:06:10;100194.34;;;3.26;59.24
6144;BME280;3103;49.492;8.474;2023-03-12T02:08:43;100202.59;;;3.51;58.85
6144;BME280;3103;49.492;8.474;2023-03-12T02:11:12;100194.22;;;3.48;58.69
6144;BME280;3103;49.492;8.474;2023-03-12T02:13:39;100190.72;;;3.41;58.87
6144;BME280;3103;49.492;8.474;2023-03-12T02:16:06;100192.03;;;3.78;58.48
6144;BME280;3103;49.492;8.474;2023-03-12T02:18:34;100191.66;;;3.81;58.73
6144;BME280;3103;49.492;8.474;2023-03-12T02:23:43;100188.97;;;3.74;59.62
6144;BME280;3103;49.492;8.474;2023-03-12T02:26:14;100195.09;;;3.75;59.68
6144;BME280;3103;49.492;8.474;2023-03-12T02:28:42;100185.66;;;3.66;59.24
6144;BME280;3103;49.492;8.474;2023-03-12T02:31:13;100187.75;;;3.77;58.93
6144;BME280;3103;49.492;8.474;2023-03-12T02:33:42;100179.56;;;3.72;58.42
6144;BME280;3103;49.492;8.474;2023-03-12T02:36:09;100184.84;;;3.52;59.09
6144;BME280;3103;49.492;8.474;2023-03-12T02:44:09;100179.53;;;3.52;59.40
6144;BME280;3103;49.492;8.474;2023-03-12T02:46:44;100171.16;;;3.62;59.11
6144;BME280;3103;49.492;8.474;2023-03-12T02:49:12;100175.44;;;3.63;58.82
6144;BME280;3103;49.492;8.474;2023-03-12T02:51:41;100173.59;;;3.56;59.10
6144;BME280;3103;49.492;8.474;2023-03-12T02:54:09;100171.34;;;3.53;59.29
6144;BME280;3103;49.492;8.474;2023-03-12T02:56:37;100164.78;;;3.43;59.83
6144;BME280;3103;49.492;8.474;2023-03-12T02:59:04;100168.41;;;3.35;59.90
6144;BME280;3103;49.492;8.474;2023-03-12T03:01:35;100163.97;;;3.42;60.15
6144;BME280;3103;49.492;8.474;2023-03-12T03:04:06;100160.94;;;3.58;60.04
6144;BME280;3103;49.492;8.474;2023-03-12T03:06:34;100165.41;;;3.51;59.83
6144;BME280;3103;49.492;8.474;2023-03-12T03:09:03;100165.44;;;3.58;60.01
6144;BME280;3103;49.492;8.474;2023-03-12T03:11:30;100162.13;;;3.49;59.97
6144;BME280;3103;49.492;8.474;2023-03-12T03:13:59;100160.75;;;3.60;59.80
6144;BME280;3103;49.492;8.474;2023-03-12T03:16:26;100162.38;;;3.54;59.42
6144;BME280;3103;49.492;8.474;2023-03-12T03:18:53;100169.53;;;3.61;59.24
6144;BME280;3103;49.492;8.474;2023-03-12T03:21:20;100168.50;;;3.55;59.91
6144;BME280;3103;49.492;8.474;2023-03-12T03:23:49;100167.31;;;3.71;59.36
6144;BME280;3103;49.492;8.474;2023-03-12T03:26:21;100168.91;;;3.58;60.06
6144;BME280;3103;49.492;8.474;2023-03-12T03:28:48;100172.75;;;3.43;61.28
6144;BME280;3103;49.492;8.474;2023-03-12T03:31:16;100168.03;;;3.38;60.14
6144;BME280;3103;49.492;8.474;2023-03-12T03:33:42;100174.88;;;3.67;59.73
6144;BME280;3103;49.492;8.474;2023-03-12T03:36:12;100175.06;;;3.72;59.47
6144;BME280;3103;49.492;8.474;2023-03-12T03:38:47;100175.47;;;3.69;59.73
6144;BME280;3103;49.492;8.474;2023-03-12T03:41:18;100170.13;;;3.63;59.76
6144;BME280;3103;49.492;8.474;2023-03-12T03:43:46;100167.44;;;3.49;59.90
6144;BME280;3103;49.492;8.474;2023-03-12T03:46:14;100167.84;;;3.46;59.30
6144;BME280;3103;49.492;8.474;2023-03-12T03:48:45;100168.50;;;3.62;58.37
6144;BME280;3103;49.492;8.474;2023-03-12T03:51:13;100169.16;;;3.70;58.10
6144;BME280;3103;49.492;8.474;2023-03-12T03:53:43;100165.50;;;3.17;59.91
6144;BME280;3103;49.492;8.474;2023-03-12T03:56:13;100165.63;;;3.56;59.07
6144;BME280;3103;49.492;8.474;2023-03-12T03:58:44;100156.66;;;3.64;58.98
6144;BME280;3103;49.492;8.474;2023-03-12T04:01:13;100164.25;;;3.74;59.28
6144;BME280;3103;49.492;8.474;2023-03-12T04:03:41;100166.25;;;3.58;59.29
6144;BME280;3103;49.492;8.474;2023-03-12T04:06:09;100167.59;;;3.28;60.46
6144;BME280;3103;49.492;8.474;2023-03-12T04:08:37;100165.75;;;3.35;60.77
6144;BME280;3103;49.492;8.474;2023-03-12T04:11:19;100164.72;;;3.30;60.57
6144;BME280;3103;49.492;8.474;2023-03-12T04:13:47;100150.06;;;3.47;60.52
6144;BME280;3103;49.492;8.474;2023-03-12T04:16:22;100158.19;;;3.32;59.71
6144;BME280;3103;49.492;8.474;2023-03-12T04:18:52;100161.19;;;3.16;60.30
6144;BME280;3103;49.492;8.474;2023-03-12T04:21:19;100166.25;;;3.04;61.19
6144;BME280;3103;49.492;8.474;2023-03-12T04:23:48;100165.41;;;2.97;60.93
6144;BME280;3103;49.492;8.474;2023-03-12T04:26:16;100155.28;;;3.14;60.42
6144;BME280;3103;49.492;8.474;2023-03-12T04:28:43;100155.13;;;3.28;60.04
6144;BME280;3103;49.492;8.474;2023-03-12T04:31:10;100157.31;;;3.12;59.18
6144;BME280;3103;49.492;8.474;2023-03-12T04:33:42;100156.97;;;3.28;58.82
6144;BME280;3103;49.492;8.474;2023-03-12T04:36:10;100161.53;;;3.00;59.83
6144;BME280;3103;49.492;8.474;2023-03-12T04:38:40;100161.28;;;2.94;60.04
6144;BME280;3103;49.492;8.474;2023-03-12T04:41:11;100173.03;;;2.79;61.07
6144;BME280;3103;49.492;8.474;2023-03-12T04:43:43;100171.38;;;2.71;61.64
6144;BME280;3103;49.492;8.474;2023-03-12T04:46:11;100169.03;;;2.89;61.29
6144;BME280;3103;49.492;8.474;2023-03-12T04:48:39;100164.59;;;2.96;61.57
6144;BME280;3103;49.492;8.474;2023-03-12T04:51:06;100167.38;;;2.88;61.84
6144;BME280;3103;49.492;8.474;2023-03-12T04:53:33;100172.19;;;2.72;62.20
6144;BME280;3103;49.492;8.474;2023-03-12T04:56:01;100173.50;;;2.82;62.19
6144;BME280;3103;49.492;8.474;2023-03-12T04:58:29;100169.13;;;2.68;62.21
6144;BME280;3103;49.492;8.474;2023-03-12T05:00:56;100165.16;;;2.57;63.04
6144;BME280;3103;49.492;8.474;2023-03-12T05:03:22;100168.38;;;2.53;64.03
6144;BME280;3103;49.492;8.474;2023-03-12T05:05:49;100162.75;;;2.34;65.84
6144;BME280;3103;49.492;8.474;2023-03-12T05:08:16;100159.06;;;2.35;67.88
6144;BME280;3103;49.492;8.474;2023-03-12T05:10:44;100159.66;;;2.31;70.88
6144;BME280;3103;49.492;8.474;2023-03-12T05:13:21;100162.91;;;2.26;73.03
6144;BME280;3103;49.492;8.474;2023-03-12T05:15:52;100166.69;;;2.17;75.23
6144;BME280;3103;49.492;8.474;2023-03-12T05:18:19;100162.66;;;2.00;77.86
6144;BME280;3103;49.492;8.474;2023-03-12T05:21:06;100159.75;;;1.95;79.79
6144;BME280;3103;49.492;8.474;2023-03-12T05:23:34;100148.63;;;2.27;80.23
6144;BME280;3103;49.492;8.474;2023-03-12T05:26:01;100153.28;;;1.97;81.59
6144;BME280;3103;49.492;8.474;2023-03-12T05:28:29;100145.75;;;2.01;82.89
6144;BME280;3103;49.492;8.474;2023-03-12T05:30:59;100149.75;;;2.40;82.42
6144;BME280;3103;49.492;8.474;2023-03-12T05:33:28;100139.78;;;2.20;82.96
6144;BME280;3103;49.492;8.474;2023-03-12T05:35:58;100140.13;;;2.38;83.86
6144;BME280;3103;49.492;8.474;2023-03-12T05:38:25;100144.59;;;2.38;82.94
6144;BME280;3103;49.492;8.474;2023-03-12T05:40:54;100145.88;;;2.42;83.29
6144;BME280;3103;49.492;8.474;2023-03-12T05:43:22;100138.56;;;2.51;82.96
6144;BME280;3103;49.492;8.474;2023-03-12T05:45:51;100142.53;;;2.33;83.36
6144;BME280;3103;49.492;8.474;2023-03-12T05:48:19;100143.13;;;2.57;83.57
6144;BME280;3103;49.492;8.474;2023-03-12T05:50:47;100137.03;;;2.63;82.77
6144;BME280;3103;49.492;8.474;2023-03-12T05:53:14;100126.16;;;2.92;82.02
6144;BME280;3103;49.492;8.474;2023-03-12T05:55:42;100141.00;;;2.80;81.45
6144;BME280;3103;49.492;8.474;2023-03-12T05:58:09;100133.31;;;2.92;82.35
6144;BME280;3103;49.492;8.474;2023-03-12T06:00:41;100139.16;;;2.81;81.79
6144;BME280;3103;49.492;8.474;2023-03-12T06:03:10;100138.66;;;2.64;83.56
6144;BME280;3103;49.492;8.474;2023-03-12T06:05:37;100137.09;;;2.70;82.83
6144;BME280;3103;49.492;8.474;2023-03-12T06:08:05;100148.03;;;2.60;83.33
6144;BME280;3103;49.492;8.474;2023-03-12T06:10:32;100150.91;;;2.65;83.61
6144;BME280;3103;49.492;8.474;2023-03-12T06:12:59;100149.66;;;2.54;85.27
6144;BME280;3103;49.492;8.474;2023-03-12T06:15:26;100153.53;;;2.58;85.58
6144;BME280;3103;49.492;8.474;2023-03-12T06:17:52;100151.31;;;2.62;85.03
6144;BME280;3103;49.492;8.474;2023-03-12T06:20:19;100149.88;;;2.59;86.08
6144;BME280;3103;49.492;8.474;2023-03-12T06:22:46;100145.69;;;2.78;84.55
6144;BME280;3103;49.492;8.474;2023-03-12T06:25:13;100136.38;;;2.89;84.12
6144;BME280;3103;49.492;8.474;2023-03-12T06:27:40;100133.16;;;3.07;83.47
6144;BME280;3103;49.492;8.474;2023-03-12T06:30:07;100135.75;;;2.87;84.65
6144;BME280;3103;49.492;8.474;2023-03-12T06:32:34;100136.28;;;3.10;83.64
6144;BME280;3103;49.492;8.474;2023-03-12T06:35:01;100130.41;;;3.28;82.68
6144;BME280;3103;49.492;8.474;2023-03-12T06:37:29;100143.59;;;3.08;83.76
6144;BME280;3103;49.492;8.474;2023-03-12T06:39:56;100138.13;;;3.10;84.22
6144;BME280;3103;49.492;8.474;2023-03-12T06:42:23;100127.44;;;2.96;84.80
6144;BME280;3103;49.492;8.474;2023-03-12T06:44:51;100130.56;;;3.20;85.03
6144;BME280;3103;49.492;8.474;2023-03-12T06:47:19;100136.06;;;3.12;84.81
6144;BME280;3103;49.492;8.474;2023-03-12T06:49:45;100129.50;;;3.08;86.05
6144;BME280;3103;49.492;8.474;2023-03-12T06:52:12;100139.34;;;3.14;85.43
6144;BME280;3103;49.492;8.474;2023-03-12T06:54:39;100132.63;;;3.18;85.47
6144;BME280;3103;49.492;8.474;2023-03-12T06:57:06;100132.19;;;3.14;86.52
6144;BME280;3103;49.492;8.474;2023-03-12T06:59:32;100130.41;;;3.35;85.64
6144;BME280;3103;49.492;8.474;2023-03-12T07:02:00;100136.28;;;3.23;85.84
6144;BME280;3103;49.492;8.474;2023-03-12T07:04:27;100132.03;;;3.29;85.81
6144;BME280;3103;49.492;8.474;2023-03-12T07:06:53;100132.25;;;3.34;85.35
6144;BME280;3103;49.492;8.474;2023-03-12T07:09:20;100130.09;;;2.96;87.05
6144;BME280;3103;49.492;8.474;2023-03-12T07:11:47;100130.91;;;3.04;88.12
6144;BME280;3103;49.492;8.474;2023-03-12T07:14:13;100132.22;;;2.80;88.38
6144;BME280;3103;49.492;8.474;2023-03-12T07:16:40;100130.25;;;2.54;90.06
6144;BME280;3103;49.492;8.474;2023-03-12T07:19:07;100128.31;;;2.69;91.18
6144;BME280;3103;49.492;8.474;2023-03-12T07:21:33;100129.06;;;2.97;89.81
6144;BME280;3103;49.492;8.474;2023-03-12T07:24:00;100126.28;;;3.12;89.47
6144;BME280;3103;49.492;8.474;2023-03-12T07:26:33;100124.69;;;3.24;88.40
6144;BME280;3103;49.492;8.474;2023-03-12T07:29:02;100135.53;;;3.36;87.27
6144;BME280;3103;49.492;8.474;2023-03-12T07:31:28;100139.19;;;3.28;87.29
6144;BME280;3103;49.492;8.474;2023-03-12T07:33:55;100145.09;;;3.24;85.94
6144;BME280;3103;49.492;8.474;2023-03-12T07:36:22;100133.41;;;3.12;86.42
6144;BME280;3103;49.492;8.474;2023-03-12T07:38:49;100133.56;;;2.97;86.24
6144;BME280;3103;49.492;8.474;2023-03-12T07:41:16;100136.91;;;3.19;86.86
6144;BME280;3103;49.492;8.474;2023-03-12T07:43:42;100120.00;;;3.33;85.01
6144;BME280;3103;49.492;8.474;2023-03-12T07:46:10;100113.25;;;3.24;83.55
6144;BME280;3103;49.492;8.474;2023-03-12T07:48:37;100119.22;;;3.39;83.40
6144;BME280;3103;49.492;8.474;2023-03-12T07:51:05;100120.81;;;3.34;82.54
6144;BME280;3103;49.492;8.474;2023-03-12T07:53:32;100127.22;;;3.66;81.85
6144;BME280;3103;49.492;8.474;2023-03-12T07:55:58;100124.47;;;3.26;82.47
6144;BME280;3103;49.492;8.474;2023-03-12T07:58:25;100131.69;;;3.39;82.45
6144;BME280;3103;49.492;8.474;2023-03-12T08:00:54;100142.47;;;3.24;82.21
6144;BME280;3103;49.492;8.474;2023-03-12T08:03:21;100143.84;;;3.20;82.29
6144;BME280;3103;49.492;8.474;2023-03-12T08:05:59;100143.53;;;3.43;81.86
6144;BME280;3103;49.492;8.474;2023-03-12T08:08:27;100143.97;;;3.60;80.67
6144;BME280;3103;49.492;8.474;2023-03-12T08:10:54;100144.00;;;3.73;80.32
6144;BME280;3103;49.492;8.474;2023-03-12T08:13:23;100152.94;;;3.45;80.32
6144;BME280;3103;49.492;8.474;2023-03-12T08:15:51;100144.34;;;3.43;81.41
6144;BME280;3103;49.492;8.474;2023-03-12T08:18:19;100142.50;;;3.44;81.00
6144;BME280;3103;49.492;8.474;2023-03-12T08:20:49;100149.22;;;2.92;84.08
6144;BME280;3103;49.492;8.474;2023-03-12T08:23:17;100159.69;;;3.00;83.93
6144;BME280;3103;49.492;8.474;2023-03-12T08:25:46;100149.34;;;3.18;84.42
6144;BME280;3103;49.492;8.474;2023-03-12T08:28:14;100156.97;;;3.28;84.15
6144;BME280;3103;49.492;8.474;2023-03-12T08:30:46;100161.47;;;3.27;83.96
6144;BME280;3103;49.492;8.474;2023-03-12T08:33:13;100143.56;;;3.63;83.25
6144;BME280;3103;49.492;8.474;2023-03-12T08:35:39;100136.88;;;3.86;82.00
6144;BME280;3103;49.492;8.474;2023-03-12T08:38:07;100137.09;;;4.11;80.95
6144;BME280;3103;49.492;8.474;2023-03-12T08:40:34;100135.00;;;3.74;81.40
6144;BME280;3103;49.492;8.474;2023-03-12T08:43:00;100133.59;;;3.91;81.98
6144;BME280;3103;49.492;8.474;2023-03-12T08:45:27;100134.22;;;4.00;80.83
6144;BME280;3103;49.492;8.474;2023-03-12T08:47:54;100133.22;;;3.94;81.21
6144;BME280;3103;49.492;8.474;2023-03-12T08:50:21;100133.41;;;3.99;81.24
6144;BME280;3103;49.492;8.474;2023-03-12T08:52:48;100144.03;;;4.45;80.27
6144;BME280;3103;49.492;8.474;2023-03-12T08:55:15;100142.00;;;4.34;80.00
6144;BME280;3103;49.492;8.474;2023-03-12T08:57:42;100131.78;;;4.38;79.58
6144;BME280;3103;49.492;8.474;2023-03-12T09:00:09;100133.59;;;4.44;80.24
6144;BME280;3103;49.492;8.474;2023-03-12T09:02:43;100123.56;;;4.53;79.92
6144;BME280;3103;49.492;8.474;2023-03-12T09:05:10;100125.22;;;4.27;80.05
6144;BME280;3103;49.492;8.474;2023-03-12T09:07:37;100126.03;;;4.01;81.28
6144;BME280;3103;49.492;8.474;2023-03-12T09:10:04;100126.44;;;4.05;82.50
6144;BME280;3103;49.492;8.474;2023-03-12T09:12:31;100135.06;;;4.27;81.96
6144;BME280;3103;49.492;8.474;2023-03-12T09:14:58;100126.47;;;3.98;82.77
6144;BME280;3103;49.492;8.474;2023-03-12T09:17:30;100132.00;;;4.23;82.13
6144;BME280;3103;49.492;8.474;2023-03-12T09:19:57;100134.44;;;4.38;83.28
6144;BME280;3103;49.492;8.474;2023-03-12T09:22:24;100140.75;;;4.50;82.66
6144;BME280;3103;49.492;8.474;2023-03-12T09:24:51;100144.22;;;4.57;82.33
6144;BME280;3103;49.492;8.474;2023-03-12T09:27:17;100138.72;;;4.52;82.53
6144;BME280;3103;49.492;8.474;2023-03-12T09:29:44;100140.91;;;4.75;83.87
6144;BME280;3103;49.492;8.474;2023-03-12T09:32:26;100136.88;;;4.39;83.93
6144;BME280;3103;49.492;8.474;2023-03-12T09:34:53;100138.72;;;4.39;85.00
6144;BME280;3103;49.492;8.474;2023-03-12T09:37:20;100147.53;;;4.26;86.15
6144;BME280;3103;49.492;8.474;2023-03-12T09:39:50;100143.84;;;4.01;87.63
6144;BME280;3103;49.492;8.474;2023-03-12T09:42:23;100141.78;;;4.42;87.26
6144;BME280;3103;49.492;8.474;2023-03-12T09:44:52;100153.41;;;4.81;85.52
6144;BME280;3103;49.492;8.474;2023-03-12T09:47:29;100150.19;;;4.53;84.85
6144;BME280;3103;49.492;8.474;2023-03-12T09:50:05;100151.53;;;4.95;85.22
6144;BME280;3103;49.492;8.474;2023-03-12T09:52:48;100144.81;;;4.79;84.49
6144;BME280;3103;49.492;8.474;2023-03-12T09:55:19;100151.34;;;4.76;85.54
6144;BME280;3103;49.492;8.474;2023-03-12T09:57:48;100160.13;;;4.90;85.23
6144;BME280;3103;49.492;8.474;2023-03-12T10:00:19;100161.63;;;4.66;84.65
6144;BME280;3103;49.492;8.474;2023-03-12T10:05:54;100158.56;;;4.43;86.72
6144;BME280;3103;49.492;8.474;2023-03-12T10:11:27;100185.41;;;5.26;84.96
6144;BME280;3103;49.492;8.474;2023-03-12T10:17:13;100180.59;;;5.54;84.21
6144;BME280;3103;49.492;8.474;2023-03-12T10:19:49;100188.47;;;5.29;84.57
6144;BME280;3103;49.492;8.474;2023-03-12T10:22:48;100187.75;;;4.96;85.60
6144;BME280;3103;49.492;8.474;2023-03-12T10:25:40;100178.09;;;5.08;85.27
6144;BME280;3103;49.492;8.474;2023-03-12T10:28:15;100177.56;;;5.82;84.46
6144;BME280;3103;49.492;8.474;2023-03-12T10:31:33;100174.25;;;5.87;85.05
6144;BME280;3103;49.492;8.474;2023-03-12T10:33:55;100175.16;;;6.37;82.98
6144;BME280;3103;49.492;8.474;2023-03-12T10:36:35;100177.78;;;5.81;83.92
6144;BME280;3103;49.492;8.474;2023-03-12T10:39:04;100171.41;;;6.20;84.00
6144;BME280;3103;49.492;8.474;2023-03-12T10:41:32;100172.09;;;6.34;81.69
6144;BME280;3103;49.492;8.474;2023-03-12T10:44:07;100159.13;;;5.74;84.04
6144;BME280;3103;49.492;8.474;2023-03-12T10:49:36;100152.69;;;5.88;85.11
6144;BME280;3103;49.492;8.474;2023-03-12T10:54:37;100159.78;;;6.08;84.69
6144;BME280;3103;49.492;8.474;2023-03-12T10:57:04;100162.84;;;6.05;84.45
6144;BME280;3103;49.492;8.474;2023-03-12T10:59:34;100155.34;;;5.95;85.19
6144;BME280;3103;49.492;8.474;2023-03-12T11:02:11;100168.09;;;5.93;86.21
6144;BME280;3103;49.492;8.474;2023-03-12T11:04:50;100171.22;;;6.15;85.30
6144;BME280;3103;49.492;8.474;2023-03-12T11:07:32;100178.78;;;6.18;84.93
6144;BME280;3103;49.492;8.474;2023-03-12T11:12:32;100174.34;;;6.37;84.58
6144;BME280;3103;49.492;8.474;2023-03-12T11:15:21;100181.25;;;6.19;85.85
6144;BME280;3103;49.492;8.474;2023-03-12T11:17:48;100173.41;;;6.24;86.60
6144;BME280;3103;49.492;8.474;2023-03-12T11:20:27;100176.00;;;6.56;86.36
6144;BME280;3103;49.492;8.474;2023-03-12T11:22:55;100171.94;;;6.72;85.43
6144;BME280;3103;49.492;8.474;2023-03-12T11:25:26;100179.47;;;7.00;84.55
6144;BME280;3103;49.492;8.474;2023-03-12T11:28:00;100181.69;;;7.03;84.46
6144;BME280;3103;49.492;8.474;2023-03-12T11:30:38;100175.53;;;7.02;83.77
6144;BME280;3103;49.492;8.474;2023-03-12T11:33:08;100170.19;;;6.84;85.23
6144;BME280;3103;49.492;8.474;2023-03-12T11:38:19;100167.53;;;7.21;84.64
6144;BME280;3103;49.492;8.474;2023-03-12T11:46:48;100155.34;;;7.85;82.83
6144;BME280;3103;49.492;8.474;2023-03-12T11:52:13;100160.47;;;8.28;82.04
6144;BME280;3103;49.492;8.474;2023-03-12T11:55:18;100162.50;;;8.56;80.95
6144;BME280;3103;49.492;8.474;2023-03-12T11:58:26;100156.66;;;8.71;80.98
6144;BME280;3103;49.492;8.474;2023-03-12T12:00:58;100158.97;;;9.02;80.16
6144;BME280;3103;49.492;8.474;2023-03-12T12:03:49;100161.88;;;9.01;80.36
6144;BME280;3103;49.492;8.474;2023-03-12T12:09:38;100135.44;;;9.04;81.60
6144;BME280;3103;49.492;8.474;2023-03-12T12:12:38;100124.47;;;9.06;81.69
6144;BME280;3103;49.492;8.474;2023-03-12T12:29:22;100117.66;;;9.27;80.42
6144;BME280;3103;49.492;8.474;2023-03-12T12:31:54;100116.13;;;9.31;80.56
6144;BME280;3103;49.492;8.474;2023-03-12T12:34:56;100106.88;;;9.38;80.13
6144;BME280;3103;49.492;8.474;2023-03-12T12:37:45;100107.56;;;9.45;81.07
6144;BME280;3103;49.492;8.474;2023-03-12T12:40:26;100112.72;;;9.64;81.81
6144;BME280;3103;49.492;8.474;2023-03-12T12:45:51;100110.22;;;9.57;81.41
6144;BME280;3103;49.492;8.474;2023-03-12T12:48:27;100117.03;;;9.65;81.50
6144;BME280;3103;49.492;8.474;2023-03-12T12:50:57;100126.66;;;9.77;81.21
6144;BME280;3103;49.492;8.474;2023-03-12T12:56:42;100113.25;;;9.77;82.11
6144;BME280;3103;49.492;8.474;2023-03-12T13:02:11;100105.94;;;9.73;81.97
6144;BME280;3103;49.492;8.474;2023-03-12T13:04:41;100099.84;;;9.94;82.22
6144;BME280;3103;49.492;8.474;2023-03-12T13:09:52;100086.66;;;10.09;82.48
6144;BME280;3103;49.492;8.474;2023-03-12T13:14:49;100081.09;;;10.28;83.03
6144;BME280;3103;49.492;8.474;2023-03-12T13:19:48;100081.44;;;10.53;81.12
6144;BME280;3103;49.492;8.474;2023-03-12T13:22:30;100080.47;;;10.59;81.47
6144;BME280;3103;49.492;8.474;2023-03-12T13:27:57;100069.41;;;10.99;75.74
6144;BME280;3103;49.492;8.474;2023-03-12T13:35:37;100047.03;;;11.43;68.33
6144;BME280;3103;49.492;8.474;2023-03-12T13:38:11;100043.44;;;11.64;67.57
6144;BME280;3103;49.492;8.474;2023-03-12T13:40:53;100039.25;;;11.78;66.99
6144;BME280;3103;49.492;8.474;2023-03-12T13:43:45;100044.34;;;12.02;66.27
6144;BME280;3103;49.492;8.474;2023-03-12T13:48:45;100047.78;;;12.34;64.71
6144;BME280;3103;49.492;8.474;2023-03-12T13:51:23;100036.44;;;12.32;64.65
6144;BME280;3103;49.492;8.474;2023-03-12T13:53:57;100033.75;;;12.32;64.37
6144;BME280;3103;49.492;8.474;2023-03-12T13:56:30;100042.13;;;12.36;64.08
6144;BME280;3103;49.492;8.474;2023-03-12T13:59:00;100041.63;;;12.39;64.57
6144;BME280;3103;49.492;8.474;2023-03-12T14:01:39;100039.16;;;12.32;65.37
6144;BME280;3103;49.492;8.474;2023-03-12T14:04:12;100040.84;;;12.43;64.96
6144;BME280;3103;49.492;8.474;2023-03-12T14:09:43;100050.91;;;12.63;64.37
6144;BME280;3103;49.492;8.474;2023-03-12T14:15:20;100051.59;;;12.43;64.76
6144;BME280;3103;49.492;8.474;2023-03-12T14:17:57;100044.88;;;12.46;63.89
6144;BME280;3103;49.492;8.474;2023-03-12T14:20:26;100055.47;;;12.63;63.78
6144;BME280;3103;49.492;8.474;2023-03-12T14:22:58;100050.16;;;12.73;64.19
6144;BME280;3103;49.492;8.474;2023-03-12T14:25:38;100052.84;;;12.78;64.09
6144;BME280;3103;49.492;8.474;2023-03-12T14:28:13;100052.34;;;12.86;63.78
6144;BME280;3103;49.492;8.474;2023-03-12T14:31:16;100059.06;;;12.78;64.03
6144;BME280;3103;49.492;8.474;2023-03-12T14:33:57;100050.59;;;12.55;65.32
6144;BME280;3103;49.492;8.474;2023-03-12T14:36:28;100051.31;;;12.40;66.34
6144;BME280;3103;49.492;8.474;2023-03-12T14:39:14;100043.97;;;12.25;67.85
6144;BME280;3103;49.492;8.474;2023-03-12T14:41:44;100042.00;;;12.15;68.87
6144;BME280;3103;49.492;8.474;2023-03-12T14:44:27;100034.72;;;12.11;69.53
6144;BME280;3103;49.492;8.474;2023-03-12T14:47:02;100035.66;;;11.95;70.07
6144;BME280;3103;49.492;8.474;2023-03-12T14:49:30;100030.00;;;11.96;70.64
6144;BME280;3103;49.492;8.474;2023-03-12T14:51:57;100037.25;;;11.91;68.70
6144;BME280;3103;49.492;8.474;2023-03-12T14:54:26;100032.94;;;11.95;68.79
6144;BME280;3103;49.492;8.474;2023-03-12T14:56:53;100043.72;;;11.95;68.43
6144;BME280;3103;49.492;8.474;2023-03-12T14:59:21;100045.13;;;11.97;68.17
6144;BME280;3103;49.492;8.474;2023-03-12T15:01:48;100030.00;;;11.96;68.01
6144;BME280;3103;49.492;8.474;2023-03-12T15:04:17;100032.19;;;11.99;68.16
6144;BME280;3103;49.492;8.474;2023-03-12T15:06:48;100025.94;;;11.94;68.51